createdAt,value
2017-05-17T06:09:13.561Z,70.62
2017-05-17T06:10:13.603Z,70.05
2017-05-17T06:11:13.639Z,68.1
2017-05-17T06:12:13.656Z,66.88
2017-05-17T06:13:13.714Z,66.62
2017-05-17T06:14:13.984Z,64.15
2017-05-17T06:15:13.792Z,63.34
2017-05-17T06:16:13.813Z,61.34
2017-05-17T06:17:13.844Z,59.56
2017-05-17T06:18:13.907Z,57.91
2017-05-17T06:19:13.947Z,55.77
2017-05-17T06:20:13.985Z,54.36
2017-05-17T06:21:14.038Z,52.14
2017-05-17T06:22:14.063Z,50.73
2017-05-17T06:23:14.101Z,47.66
2017-05-17T06:24:14.148Z,47.19
2017-05-17T06:25:14.187Z,46.92
2017-05-17T06:26:14.228Z,46.95
2017-05-17T06:27:14.265Z,46.29
2017-05-17T06:28:14.313Z,45.12
2017-05-17T06:29:14.342Z,46.09
2017-05-17T06:30:14.395Z,46.11
2017-05-17T06:31:14.436Z,45.92
2017-05-17T06:32:14.458Z,45.16
2017-05-17T06:33:14.522Z,44.28
2017-05-17T06:34:14.562Z,44.89
2017-05-17T06:35:14.604Z,43.23
2017-05-17T06:36:14.646Z,43.91
2017-05-17T06:37:14.685Z,43.81
2017-05-17T06:38:14.720Z,43.24
2017-05-17T06:39:14.771Z,42.56
2017-05-17T06:40:14.813Z,43.15
2017-05-17T06:41:14.864Z,43.44
2017-05-17T06:42:14.900Z,41.92
2017-05-17T06:43:14.945Z,41.84
2017-05-17T06:44:14.986Z,41.39
2017-05-17T06:45:15.036Z,39.54
2017-05-17T06:46:15.069Z,38.85
2017-05-17T06:47:15.117Z,37.6
2017-05-17T06:48:15.164Z,38.58
2017-05-17T06:49:15.191Z,39.27
2017-05-17T06:50:15.231Z,38.78
2017-05-17T06:51:15.297Z,37.5
2017-05-17T06:52:15.340Z,37.38
2017-05-17T06:53:15.367Z,37.11
2017-05-17T06:54:15.428Z,37.03
2017-05-17T06:55:15.477Z,36.54
2017-05-17T06:56:15.516Z,36.07
2017-05-17T06:57:15.563Z,35.2
2017-05-17T06:58:15.605Z,36.28
2017-05-17T06:59:15.651Z,35.9
2017-05-17T07:00:15.677Z,35.31
2017-05-17T07:01:15.727Z,35.63
2017-05-17T07:02:15.788Z,35.61
2017-05-17T07:03:15.829Z,35.31
2017-05-17T07:04:15.879Z,36.11
2017-05-17T07:05:16.069Z,34.75
2017-05-17T07:06:15.969Z,34.99
2017-05-17T07:07:15.998Z,34.39
2017-05-17T07:08:16.057Z,34.12
2017-05-17T07:09:16.098Z,33.64
2017-05-17T07:10:16.395Z,34.13
2017-05-17T07:11:16.192Z,34.44
2017-05-17T07:12:16.238Z,34.46
2017-05-17T07:13:16.286Z,33.01
2017-05-17T07:14:16.326Z,32.83
2017-05-17T07:15:16.371Z,32.75
2017-05-17T07:16:16.424Z,32.76
2017-05-17T07:17:16.469Z,32.27
2017-05-17T07:18:16.517Z,31.87
2017-05-17T07:19:16.561Z,30.99
2017-05-17T07:20:16.589Z,31.57
2017-05-17T07:21:16.662Z,32.18
2017-05-17T07:22:16.700Z,31.01
2017-05-17T07:23:16.747Z,30.62
2017-05-17T07:24:16.798Z,31.51
2017-05-17T07:25:16.845Z,31.13
2017-05-17T07:26:16.894Z,30.81
2017-05-17T07:27:16.916Z,30.83
2017-05-17T07:28:16.992Z,29.25
2017-05-17T07:29:17.035Z,30.35
2017-05-17T07:30:17.081Z,30.46
2017-05-17T07:31:17.105Z,30.47
2017-05-17T07:32:17.167Z,30.09
2017-05-17T07:33:17.223Z,29.81
2017-05-17T07:34:17.269Z,29.52
2017-05-17T07:35:17.301Z,29.13
2017-05-17T07:36:17.361Z,28.74
2017-05-17T07:37:17.401Z,28.33
2017-05-17T07:38:17.451Z,28.91
2017-05-17T07:39:17.501Z,29.31
2017-05-17T07:40:17.557Z,29.21
2017-05-17T07:41:17.580Z,29.22
2017-05-17T07:42:17.633Z,28.74
2017-05-17T07:43:17.697Z,27.06
2017-05-17T07:44:17.744Z,27.17
2017-05-17T07:45:17.794Z,27.76
2017-05-17T07:46:17.837Z,27.35
2017-05-17T07:47:17.891Z,26.86
2017-05-17T07:48:17.933Z,26.44
2017-05-17T07:49:17.986Z,28.01
2017-05-17T07:50:18.031Z,28.46
2017-05-17T07:51:18.075Z,29.34
2017-05-17T07:52:18.121Z,29.44
2017-05-17T07:53:18.174Z,28.56
2017-05-17T07:54:18.223Z,28.38
2017-05-17T07:55:18.268Z,28.86
2017-05-17T07:56:18.333Z,29.34
2017-05-17T07:57:18.366Z,29.44
2017-05-17T07:58:18.405Z,28.73
2017-05-17T07:59:18.464Z,28.63
2017-05-17T08:00:18.512Z,28.73
2017-05-17T08:01:18.561Z,28.25
2017-05-17T08:02:18.613Z,28.75
2017-05-17T08:03:18.641Z,28.86
2017-05-17T08:04:18.709Z,28.18
2017-05-17T08:05:18.854Z,27.78
2017-05-17T08:06:18.805Z,28.36
2017-05-17T08:07:18.851Z,28.38
2017-05-17T08:08:18.904Z,28.28
2017-05-17T08:09:18.949Z,28.88
2017-05-17T08:10:19.248Z,29.27
2017-05-17T08:11:19.053Z,28.76
2017-05-17T08:12:19.101Z,28.35
2017-05-17T08:13:19.145Z,28.73
2017-05-17T08:14:19.196Z,29.61
2017-05-17T08:15:19.249Z,29.14
2017-05-17T08:16:19.289Z,27.78
2017-05-17T08:17:19.344Z,27.99
2017-05-17T08:18:19.388Z,27.91
2017-05-17T08:19:19.437Z,28.89
2017-05-17T08:20:19.490Z,28.39
2017-05-17T08:21:19.535Z,28.8
2017-05-17T08:22:19.585Z,28.62
2017-05-17T08:23:19.636Z,27.54
2017-05-17T08:24:19.686Z,27.73
2017-05-17T08:25:19.737Z,27.94
2017-05-17T08:26:19.781Z,26.95
2017-05-17T08:27:19.836Z,27.26
2017-05-17T08:28:19.878Z,26.88
2017-05-17T08:29:19.937Z,27
2017-05-17T08:30:19.967Z,27.4
2017-05-17T08:31:20.035Z,26.21
2017-05-17T08:32:20.085Z,26.7
2017-05-17T08:33:20.132Z,27.37
2017-05-17T08:34:20.186Z,27.75
2017-05-17T08:35:20.233Z,28.3
2017-05-17T08:36:20.280Z,27.7
2017-05-17T08:37:20.338Z,28.19
2017-05-17T08:38:20.383Z,28.41
2017-05-17T08:39:20.429Z,28.03
2017-05-17T08:40:20.914Z,27.17
2017-05-17T08:41:20.749Z,26.58
2017-05-17T08:42:21.037Z,27.29
2017-05-17T08:43:20.635Z,26.7
2017-05-17T08:44:20.896Z,26.5
2017-05-17T08:45:20.734Z,27.09
2017-05-17T08:46:20.790Z,26.48
2017-05-17T08:47:20.827Z,27.26
2017-05-17T08:48:20.887Z,27.15
2017-05-17T08:49:20.915Z,28.05
2017-05-17T08:50:20.989Z,27.75
2017-05-17T08:51:21.021Z,27.36
2017-05-17T08:52:21.093Z,27.09
2017-05-17T08:53:21.129Z,26.81
2017-05-17T08:54:21.202Z,27.03
2017-05-17T08:55:21.531Z,26.86
2017-05-17T08:56:21.346Z,26.5
2017-05-17T08:57:21.329Z,25.81
2017-05-17T08:58:21.400Z,25.42
2017-05-17T08:59:21.455Z,25.11
2017-05-17T09:00:21.662Z,25.28
2017-05-17T09:01:21.557Z,25.95
2017-05-17T09:02:21.602Z,26.52
2017-05-17T09:03:21.672Z,26.32
2017-05-17T09:04:21.712Z,26.32
2017-05-17T09:05:21.763Z,26.51
2017-05-17T09:06:21.813Z,26.9
2017-05-17T09:07:21.848Z,26.1
2017-05-17T09:08:21.927Z,26.62
2017-05-17T09:09:21.973Z,26.12
2017-05-17T09:10:22.025Z,26.03
2017-05-17T09:11:22.077Z,25.82
2017-05-17T09:12:22.117Z,26.61
2017-05-17T09:13:22.171Z,27.18
2017-05-17T09:14:22.214Z,27.18
2017-05-17T09:15:22.285Z,27.56
2017-05-17T09:16:22.331Z,26.88
2017-05-17T09:17:22.390Z,26.29
2017-05-17T09:18:22.437Z,26.79
2017-05-17T09:19:22.497Z,26.76
2017-05-17T09:20:22.552Z,27.05
2017-05-17T09:21:22.599Z,27.24
2017-05-17T09:22:22.645Z,27.44
2017-05-17T09:23:22.701Z,27.96
2017-05-17T09:24:22.764Z,26.59
2017-05-17T09:25:22.813Z,26.9
2017-05-17T09:26:22.864Z,26.89
2017-05-17T09:27:22.920Z,27.3
2017-05-17T09:28:22.967Z,27.11
2017-05-17T09:29:23.030Z,26.32
2017-05-17T09:30:23.071Z,26.12
2017-05-17T09:31:23.129Z,26.62
2017-05-17T09:32:23.179Z,26.81
2017-05-17T09:33:23.227Z,27
2017-05-17T09:34:23.281Z,26.83
2017-05-17T09:35:23.338Z,26.94
2017-05-17T09:36:23.397Z,26.68
2017-05-17T09:37:23.434Z,26.29
2017-05-17T09:38:23.503Z,26.12
2017-05-17T09:39:23.549Z,25.73
2017-05-17T09:40:23.587Z,25.73
2017-05-17T09:41:23.654Z,25.34
2017-05-17T09:42:23.693Z,25.26
2017-05-17T09:43:23.818Z,25.56
2017-05-17T09:44:23.815Z,25.05
2017-05-17T09:45:23.872Z,24.65
2017-05-17T09:46:24.221Z,25.03
2017-05-17T09:47:23.982Z,25.01
2017-05-17T09:48:24.030Z,25.57
2017-05-17T09:49:24.084Z,26.54
2017-05-17T09:50:24.191Z,25.95
2017-05-17T09:51:24.332Z,26.54
2017-05-17T09:52:24.225Z,26.82
2017-05-17T09:53:24.299Z,27.28
2017-05-17T09:54:24.356Z,27.37
2017-05-17T09:55:24.399Z,27.56
2017-05-17T09:56:24.454Z,27.28
2017-05-17T09:57:24.511Z,27.2
2017-05-17T09:58:24.566Z,27.02
2017-05-17T09:59:24.625Z,26.54
2017-05-17T10:00:24.667Z,26.64
2017-05-17T10:01:24.720Z,26.43
2017-05-17T10:02:24.770Z,26.7
2017-05-17T10:03:24.835Z,27
2017-05-17T10:04:24.878Z,27.32
2017-05-17T10:05:24.927Z,27.12
2017-05-17T10:06:24.968Z,27.14
2017-05-17T10:07:25.018Z,26.86
2017-05-17T10:08:25.090Z,26.76
2017-05-17T10:09:25.135Z,25.97
2017-05-17T10:10:25.198Z,25.27
2017-05-17T10:11:25.240Z,25.95
2017-05-17T10:12:25.297Z,26.14
2017-05-17T10:13:25.344Z,26.73
2017-05-17T10:14:25.404Z,26.94
2017-05-17T10:15:25.435Z,26.96
2017-05-17T10:16:25.505Z,26.18
2017-05-17T10:17:25.560Z,25.78
2017-05-17T10:18:25.610Z,26.28
2017-05-17T10:19:25.668Z,26.26
2017-05-17T10:20:25.713Z,27.04
2017-05-17T10:21:25.758Z,26.56
2017-05-17T10:22:25.810Z,26.26
2017-05-17T10:23:25.861Z,26.64
2017-05-17T10:24:25.912Z,27.04
2017-05-17T10:25:25.961Z,26.96
2017-05-17T10:26:26.012Z,26.76
2017-05-17T10:27:26.042Z,26.58
2017-05-17T10:28:26.110Z,26.2
2017-05-17T10:29:26.150Z,26.22
2017-05-17T10:30:26.217Z,26.43
2017-05-17T10:31:26.263Z,25.73
2017-05-17T10:32:26.307Z,25.84
2017-05-17T10:33:26.362Z,25.56
2017-05-17T10:34:26.402Z,25.35
2017-05-17T10:35:26.437Z,24.95
2017-05-17T10:36:26.504Z,25.01
2017-05-17T10:37:26.532Z,25.59
2017-05-17T10:38:26.600Z,25.76
2017-05-17T10:39:26.640Z,27.53
2017-05-17T10:40:26.692Z,27.6
2017-05-17T10:41:26.746Z,27.18
2017-05-17T10:42:26.790Z,27.76
2017-05-17T10:43:26.835Z,27.97
2017-05-17T10:44:26.884Z,27.29
2017-05-17T10:45:26.926Z,27.09
2017-05-17T10:46:26.977Z,27.28
2017-05-17T10:47:27.121Z,27.65
2017-05-17T10:48:27.076Z,28.03
2017-05-17T10:49:27.106Z,27.65
2017-05-17T10:50:27.156Z,27.95
2017-05-17T10:51:27.206Z,28.39
2017-05-17T10:52:27.339Z,29.54
2017-05-17T10:53:27.298Z,30
2017-05-17T10:54:27.335Z,30.1
2017-05-17T10:55:27.383Z,29.92
2017-05-17T10:56:27.429Z,29.65
2017-05-17T10:57:27.470Z,28.69
2017-05-17T10:58:27.522Z,28.47
2017-05-17T10:59:27.563Z,28.86
2017-05-17T11:00:27.609Z,29.04
2017-05-17T11:01:27.635Z,28.93
2017-05-17T11:02:27.677Z,29.21
2017-05-17T11:03:27.738Z,29.43
2017-05-17T11:04:27.781Z,29.14
2017-05-17T11:05:27.830Z,28.94
2017-05-17T11:06:27.872Z,28.38
2017-05-17T11:07:27.918Z,28.49
2017-05-17T11:08:27.931Z,28.5
2017-05-17T11:09:27.995Z,28.43
2017-05-17T11:10:28.043Z,27.95
2017-05-17T11:11:28.068Z,28.06
2017-05-17T11:12:28.113Z,27.47
2017-05-17T11:13:28.171Z,27.96
2017-05-17T11:14:28.217Z,28.16
2017-05-17T11:15:28.245Z,27.58
2017-05-17T11:16:28.299Z,27.87
2017-05-17T11:17:28.350Z,27.18
2017-05-17T11:18:28.389Z,27.26
2017-05-17T11:19:28.430Z,27.64
2017-05-17T11:20:28.475Z,27.91
2017-05-17T11:21:28.523Z,28.39
2017-05-17T11:22:28.549Z,28.38
2017-05-17T11:23:28.597Z,28.76
2017-05-17T11:24:28.655Z,28.76
2017-05-17T11:25:28.692Z,29.36
2017-05-17T11:26:28.718Z,28.88
2017-05-17T11:27:28.780Z,28.76
2017-05-17T11:28:28.817Z,29.44
2017-05-17T11:29:28.857Z,30
2017-05-17T11:30:28.910Z,31.07
2017-05-17T11:31:28.953Z,32.31
2017-05-17T11:32:28.989Z,33.62
2017-05-17T11:33:29.032Z,34.94
2017-05-17T11:34:29.074Z,36.24
2017-05-17T11:35:29.119Z,38.06
2017-05-17T11:36:29.156Z,38.59
2017-05-17T11:37:29.205Z,40.48
2017-05-17T11:38:29.261Z,40.92
2017-05-17T11:39:29.263Z,41.85
2017-05-17T11:40:29.330Z,42.79
2017-05-17T11:41:29.367Z,43.93
2017-05-17T11:42:29.414Z,44.49
2017-05-17T11:43:29.458Z,45.15
2017-05-17T11:44:29.503Z,45.32
2017-05-17T11:45:29.539Z,46.11
2017-05-17T11:46:29.586Z,46.11
2017-05-17T11:47:29.627Z,47.27
2017-05-17T11:48:29.826Z,47.34
2017-05-17T11:49:29.707Z,46.67
2017-05-17T11:50:29.803Z,46.86
2017-05-17T11:51:29.778Z,47.42
2017-05-17T11:52:29.834Z,47.61
2017-05-17T11:53:29.964Z,48.1
2017-05-17T11:54:29.917Z,48.39
2017-05-17T11:55:29.959Z,48.78
2017-05-17T11:56:29.998Z,49.76
2017-05-17T11:57:30.048Z,48.88
2017-05-17T11:58:30.071Z,48.97
2017-05-17T11:59:30.125Z,49.37
2017-05-17T12:00:30.169Z,49.07
2017-05-17T12:01:30.209Z,48.68
2017-05-17T12:02:30.242Z,48.88
2017-05-17T12:03:30.277Z,49.07
2017-05-17T12:04:30.339Z,48.58
2017-05-17T12:05:30.380Z,48.57
2017-05-17T12:06:30.420Z,48.66
2017-05-17T12:07:30.461Z,49.05
2017-05-17T12:08:30.504Z,49.51
2017-05-17T12:09:30.551Z,49.22
2017-05-17T12:10:30.566Z,49.68
2017-05-17T12:11:30.625Z,49.77
2017-05-17T12:12:30.673Z,49.97
2017-05-17T12:13:30.720Z,49.97
2017-05-17T12:14:30.756Z,49.77
2017-05-17T12:15:30.780Z,49.66
2017-05-17T12:16:30.839Z,49.66
2017-05-17T12:17:30.880Z,49.66
2017-05-17T12:18:30.920Z,49.56
2017-05-17T12:19:30.952Z,49.95
2017-05-17T12:20:31.002Z,49.95
2017-05-17T12:21:31.045Z,49.95
2017-05-17T12:22:31.088Z,50.04
2017-05-17T12:23:31.124Z,50.04
2017-05-17T12:24:31.165Z,50.04
2017-05-17T12:25:31.211Z,50.53
2017-05-17T12:26:31.253Z,50.72
2017-05-17T12:27:31.289Z,50.53
2017-05-17T12:28:31.333Z,50.62
2017-05-17T12:29:31.380Z,50.72
2017-05-17T12:30:31.388Z,50.62
2017-05-17T12:31:31.462Z,50.72
2017-05-17T12:32:31.486Z,50.14
2017-05-17T12:33:31.539Z,49.75
2017-05-17T12:34:31.581Z,50.43
2017-05-17T12:35:31.622Z,50.82
2017-05-17T12:36:31.661Z,51.01
2017-05-17T12:37:31.688Z,51.09
2017-05-17T12:38:31.752Z,51.18
2017-05-17T12:39:31.790Z,51.28
2017-05-17T12:40:31.826Z,51.28
2017-05-17T12:41:31.869Z,51.09
2017-05-17T12:42:31.912Z,50.72
2017-05-17T12:43:31.948Z,50.43
2017-05-17T12:44:31.988Z,49.75
2017-05-17T12:45:32.032Z,50.14
2017-05-17T12:46:32.070Z,50.14
2017-05-17T12:47:32.112Z,50.43
2017-05-17T12:48:32.154Z,50.53
2017-05-17T12:49:32.184Z,50.14
2017-05-17T12:50:32.236Z,49.66
2017-05-17T12:51:32.280Z,50.24
2017-05-17T12:52:32.328Z,50.62
2017-05-17T12:53:32.359Z,50.79
2017-05-17T12:54:32.384Z,50.7
2017-05-17T12:55:32.445Z,50.99
2017-05-17T12:56:32.481Z,51.18
2017-05-17T12:57:32.530Z,51.57
2017-05-17T12:58:32.565Z,51.47
2017-05-17T12:59:32.589Z,51.57
2017-05-17T13:00:33.052Z,51.37
2017-05-17T13:01:32.673Z,51.18
2017-05-17T13:02:32.727Z,50.89
2017-05-17T13:03:32.776Z,50.79
2017-05-17T13:04:32.815Z,50.99
2017-05-17T13:05:32.852Z,51.28
2017-05-17T13:06:32.877Z,51.67
2017-05-17T13:07:32.912Z,51.57
2017-05-17T13:08:32.976Z,51.86
2017-05-17T13:09:33.018Z,51.57
2017-05-17T13:10:33.055Z,51.86
2017-05-17T13:11:33.087Z,52.22
2017-05-17T13:12:33.138Z,52.03
2017-05-17T13:13:33.181Z,51.93
2017-05-17T13:14:33.185Z,52.12
2017-05-17T13:15:33.265Z,51.96
2017-05-17T13:16:33.309Z,51.96
2017-05-17T13:17:33.331Z,52.06
2017-05-17T13:18:33.390Z,52.34
2017-05-17T13:19:33.426Z,51.86
2017-05-17T13:20:33.456Z,52.06
2017-05-17T13:21:33.510Z,52.15
2017-05-17T13:22:33.529Z,51.76
2017-05-17T13:23:33.587Z,51.76
2017-05-17T13:24:33.635Z,51.57
2017-05-17T13:25:33.674Z,51.47
2017-05-17T13:26:33.712Z,51.76
2017-05-17T13:27:33.757Z,51.96
2017-05-17T13:28:33.780Z,52.34
2017-05-17T13:29:33.832Z,52.42
2017-05-17T13:30:33.879Z,52.83
2017-05-17T13:31:33.921Z,52.61
2017-05-17T13:32:33.960Z,52.34
2017-05-17T13:33:34.005Z,52.25
2017-05-17T13:34:34.093Z,52.25
2017-05-17T13:35:34.077Z,52.15
2017-05-17T13:36:34.108Z,52.15
2017-05-17T13:37:34.160Z,52.15
2017-05-17T13:38:34.207Z,52.06
2017-05-17T13:39:34.246Z,52.25
2017-05-17T13:40:34.282Z,52.83
2017-05-17T13:41:34.332Z,52.44
2017-05-17T13:42:34.364Z,52.34
2017-05-17T13:43:34.409Z,51.76
2017-05-17T13:44:34.459Z,51.86
2017-05-17T13:45:34.496Z,51.76
2017-05-17T13:46:34.588Z,52.06
2017-05-17T13:47:34.576Z,52.15
2017-05-17T13:48:34.610Z,52.25
2017-05-17T13:49:34.651Z,52.64
2017-05-17T13:50:34.697Z,52.93
2017-05-17T13:51:34.832Z,53.49
2017-05-17T13:52:34.776Z,53.49
2017-05-17T13:53:34.803Z,53.77
2017-05-17T13:54:34.857Z,53.45
2017-05-17T13:55:34.948Z,53.17
2017-05-17T13:56:35.090Z,54.03
2017-05-17T13:57:34.976Z,54.33
2017-05-17T13:58:35.007Z,53.75
2017-05-17T13:59:35.042Z,53.55
2017-05-17T14:00:35.105Z,53.75
2017-05-17T14:01:35.126Z,53.85
2017-05-17T14:02:35.193Z,53.55
2017-05-17T14:03:35.206Z,53.67
2017-05-17T14:04:35.270Z,53.19
2017-05-17T14:05:35.307Z,53.09
2017-05-17T14:06:35.345Z,52.8
2017-05-17T14:07:35.393Z,52.9
2017-05-17T14:08:35.429Z,53.09
2017-05-17T14:09:35.471Z,52.9
2017-05-17T14:10:35.506Z,53
2017-05-17T14:11:35.548Z,53
2017-05-17T14:12:35.593Z,52.8
2017-05-17T14:13:35.629Z,53.19
2017-05-17T14:14:35.672Z,53.29
2017-05-17T14:15:35.707Z,53.65
2017-05-17T14:16:35.756Z,53.58
2017-05-17T14:17:35.797Z,53.77
2017-05-17T14:18:35.832Z,53.75
2017-05-17T14:19:35.873Z,53.87
2017-05-17T14:20:35.916Z,53.87
2017-05-17T14:21:35.952Z,53.97
2017-05-17T14:22:36.001Z,53.58
2017-05-17T14:23:36.045Z,53.58
2017-05-17T14:24:36.074Z,53.58
2017-05-17T14:25:36.119Z,53.58
2017-05-17T14:26:36.167Z,53.49
2017-05-17T14:27:36.203Z,53.39
2017-05-17T14:28:36.239Z,53.19
2017-05-17T14:29:36.282Z,53.58
2017-05-17T14:30:36.319Z,53.58
2017-05-17T14:31:36.361Z,53.09
2017-05-17T14:32:36.399Z,53.77
2017-05-17T14:33:36.429Z,53.49
2017-05-17T14:34:36.486Z,53.19
2017-05-17T14:35:36.524Z,53.55
2017-05-17T14:36:36.563Z,53.75
2017-05-17T14:37:36.602Z,53.85
2017-05-17T14:38:36.649Z,53.55
2017-05-17T14:39:36.686Z,53.67
2017-05-17T14:40:36.723Z,54.03
2017-05-17T14:41:36.777Z,54.43
2017-05-17T14:42:36.910Z,53.94
2017-05-17T14:43:36.846Z,54.23
2017-05-17T14:44:36.869Z,54.23
2017-05-17T14:45:36.927Z,54.33
2017-05-17T14:46:36.962Z,54.33
2017-05-17T14:47:37.161Z,54.33
2017-05-17T14:48:37.050Z,53.94
2017-05-17T14:49:37.093Z,54.13
2017-05-17T14:50:37.126Z,54.03
2017-05-17T14:51:37.169Z,54.23
2017-05-17T14:52:37.218Z,54.33
2017-05-17T14:53:37.270Z,53.87
2017-05-17T14:54:37.301Z,54.43
2017-05-17T14:55:37.331Z,54.62
2017-05-17T14:56:37.353Z,54.43
2017-05-17T14:57:37.419Z,54.23
2017-05-17T14:58:37.464Z,54.52
2017-05-17T14:59:37.476Z,54.13
2017-05-17T15:00:37.531Z,54.33
2017-05-17T15:01:37.573Z,54.03
2017-05-17T15:02:37.620Z,54.23
2017-05-17T15:03:37.658Z,54.43
2017-05-17T15:04:37.691Z,55
2017-05-17T15:05:37.715Z,55
2017-05-17T15:06:37.779Z,55
2017-05-17T15:07:37.830Z,54.62
2017-05-17T15:08:37.857Z,54.62
2017-05-17T15:09:37.903Z,54.69
2017-05-17T15:10:37.929Z,55.1
2017-05-17T15:11:37.976Z,55.36
2017-05-17T15:12:38.025Z,54.98
2017-05-17T15:13:38.062Z,54.91
2017-05-17T15:14:38.100Z,55.07
2017-05-17T15:15:38.128Z,54.88
2017-05-17T15:16:38.179Z,55.07
2017-05-17T15:17:38.221Z,55.07
2017-05-17T15:18:38.263Z,55.17
2017-05-17T15:19:38.313Z,55.36
2017-05-17T15:20:38.326Z,55.27
2017-05-17T15:21:38.377Z,55.46
2017-05-17T15:22:38.424Z,55.36
2017-05-17T15:23:38.470Z,56.04
2017-05-17T15:24:38.502Z,56.24
2017-05-17T15:25:38.545Z,56.11
2017-05-17T15:26:38.582Z,56.34
2017-05-17T15:27:38.632Z,56.34
2017-05-17T15:28:38.662Z,55.66
2017-05-17T15:29:38.709Z,56.04
2017-05-17T15:30:38.723Z,56.14
2017-05-17T15:31:38.788Z,55.85
2017-05-17T15:32:38.829Z,56.14
2017-05-17T15:33:38.966Z,55.94
2017-05-17T15:34:38.915Z,55.94
2017-05-17T15:35:38.946Z,56.24
2017-05-17T15:36:38.986Z,56.04
2017-05-17T15:37:39.027Z,56.52
2017-05-17T15:38:39.219Z,56.24
2017-05-17T15:39:39.110Z,57.11
2017-05-17T15:40:39.127Z,56.72
2017-05-17T15:41:39.185Z,55.76
2017-05-17T15:42:39.237Z,55.56
2017-05-17T15:43:39.265Z,55.76
2017-05-17T15:44:39.304Z,55.66
2017-05-17T15:45:39.346Z,55.94
2017-05-17T15:46:39.436Z,56.34
2017-05-17T15:47:39.434Z,56.43
2017-05-17T15:48:39.467Z,56.34
2017-05-17T15:49:39.510Z,56.04
2017-05-17T15:50:39.545Z,55.76
2017-05-17T15:51:39.582Z,56.04
2017-05-17T15:52:39.633Z,55.94
2017-05-17T15:53:39.652Z,55.94
2017-05-17T15:54:39.692Z,55.94
2017-05-17T15:55:39.729Z,55.94
2017-05-17T15:56:39.789Z,55.66
2017-05-17T15:57:39.831Z,56.14
2017-05-17T15:58:39.871Z,56.24
2017-05-17T15:59:39.910Z,56.14
2017-05-17T16:00:39.934Z,56.24
2017-05-17T16:01:39.988Z,56.52
2017-05-17T16:02:40.035Z,56.43
2017-05-17T16:03:40.069Z,56.79
2017-05-17T16:04:40.109Z,56.82
2017-05-17T16:05:40.129Z,56.88
2017-05-17T16:06:40.167Z,56.88
2017-05-17T16:07:40.237Z,57.08
2017-05-17T16:08:40.260Z,57.18
2017-05-17T16:09:40.310Z,56.88
2017-05-17T16:10:40.347Z,57.28
2017-05-17T16:11:40.387Z,57.18
2017-05-17T16:12:40.427Z,57.18
2017-05-17T16:13:40.465Z,57.18
2017-05-17T16:14:40.529Z,57.37
2017-05-17T16:15:40.546Z,57.46
2017-05-17T16:16:40.590Z,57.56
2017-05-17T16:17:40.632Z,57.56
2017-05-17T16:18:40.667Z,57.44
2017-05-17T16:19:40.841Z,57.76
2017-05-17T16:20:40.747Z,57.76
2017-05-17T16:21:40.784Z,57.73
2017-05-17T16:22:40.837Z,57.44
2017-05-17T16:23:40.874Z,58.12
2017-05-17T16:24:41.008Z,58.4
2017-05-17T16:25:40.946Z,58.12
2017-05-17T16:26:40.986Z,57.92
2017-05-17T16:27:41.034Z,58.12
2017-05-17T16:28:41.071Z,57.92
2017-05-17T16:29:41.093Z,58.12
2017-05-17T16:30:41.144Z,58.21
2017-05-17T16:31:41.191Z,58.31
2017-05-17T16:32:41.215Z,58.21
2017-05-17T16:33:41.271Z,58.02
2017-05-17T16:34:41.304Z,58.02
2017-05-17T16:35:41.343Z,58.14
2017-05-17T16:36:41.386Z,58.21
2017-05-17T16:37:41.440Z,57.95
2017-05-17T16:38:41.447Z,58.21
2017-05-17T16:39:41.504Z,58.5
2017-05-17T16:40:41.546Z,58.34
2017-05-17T16:41:41.583Z,57.95
2017-05-17T16:42:41.629Z,57.76
2017-05-17T16:43:41.666Z,57.76
2017-05-17T16:44:41.709Z,57.46
2017-05-17T16:45:41.745Z,57.56
2017-05-17T16:46:41.767Z,57.56
2017-05-17T16:47:41.825Z,57.46
2017-05-17T16:48:41.870Z,57.46
2017-05-17T16:49:41.908Z,57.46
2017-05-17T16:50:41.944Z,57.66
2017-05-17T16:51:41.983Z,57.56
2017-05-17T16:52:42.018Z,57.56
2017-05-17T16:53:42.067Z,57.95
2017-05-17T16:54:42.108Z,57.46
2017-05-17T16:55:42.143Z,57.46
2017-05-17T16:56:42.182Z,57.46
2017-05-17T16:57:42.200Z,57.56
2017-05-17T16:58:42.256Z,57.46
2017-05-17T16:59:42.304Z,57.46
2017-05-17T17:00:43.197Z,57.86
2017-05-17T17:01:42.383Z,57.86
2017-05-17T17:02:43.064Z,57.76
2017-05-17T17:03:42.433Z,57.56
2017-05-17T17:04:42.492Z,57.56
2017-05-17T17:05:42.542Z,57.76
2017-05-17T17:06:42.583Z,57.37
2017-05-17T17:07:42.618Z,57.56
2017-05-17T17:08:42.663Z,57.46
2017-05-17T17:09:42.692Z,57.66
2017-05-17T17:10:42.745Z,57.66
2017-05-17T17:11:42.769Z,57.56
2017-05-17T17:12:42.835Z,57.76
2017-05-17T17:13:42.858Z,58.4
2017-05-17T17:14:42.897Z,58.14
2017-05-17T17:15:42.934Z,58.02
2017-05-17T17:16:42.972Z,58.5
2017-05-17T17:17:43.022Z,58.8
2017-05-17T17:18:43.058Z,58.4
2017-05-17T17:19:43.097Z,59.28
2017-05-17T17:20:43.130Z,58.89
2017-05-17T17:21:43.173Z,58.98
2017-05-17T17:22:43.207Z,58.89
2017-05-17T17:23:43.253Z,58.8
2017-05-17T17:24:43.297Z,59.18
2017-05-17T17:25:43.404Z,59.47
2017-05-17T17:26:43.373Z,59.18
2017-05-17T17:27:43.411Z,59.47
2017-05-17T17:28:43.450Z,59.66
2017-05-17T17:29:43.500Z,59.66
2017-05-17T17:30:43.630Z,59.66
2017-05-17T17:31:43.550Z,59.38
2017-05-17T17:32:43.670Z,59.66
2017-05-17T17:33:43.648Z,59.76
2017-05-17T17:34:43.691Z,59.63
2017-05-17T17:35:43.707Z,59.63
2017-05-17T17:36:43.771Z,59.63
2017-05-17T17:37:43.791Z,59.73
2017-05-17T17:38:43.852Z,59.44
2017-05-17T17:39:43.890Z,59.63
2017-05-17T17:40:43.925Z,60.11
2017-05-17T17:41:43.972Z,60.11
2017-05-17T17:42:44.004Z,60.5
2017-05-17T17:43:44.035Z,60.41
2017-05-17T17:44:44.081Z,60.31
2017-05-17T17:45:44.109Z,60.5
2017-05-17T17:46:44.159Z,60.6
2017-05-17T17:47:44.203Z,60.31
2017-05-17T17:48:44.248Z,60.41
2017-05-17T17:49:44.262Z,60.41
2017-05-17T17:50:44.303Z,60.31
2017-05-17T17:51:44.360Z,60.5
2017-05-17T17:52:44.401Z,60.41
2017-05-17T17:53:44.442Z,60.41
2017-05-17T17:54:44.498Z,60.41
2017-05-17T17:55:44.522Z,60.6
2017-05-17T17:56:44.562Z,60.5
2017-05-17T17:57:44.605Z,60.31
2017-05-17T17:58:44.641Z,60.41
2017-05-17T17:59:44.675Z,60.31
2017-05-17T18:00:44.693Z,60.41
2017-05-17T18:01:44.754Z,60.41
2017-05-17T18:02:44.793Z,60.57
2017-05-17T18:03:44.818Z,60.18
2017-05-17T18:04:44.870Z,60.67
2017-05-17T18:05:44.968Z,60.86
2017-05-17T18:06:44.931Z,60.57
2017-05-17T18:07:44.981Z,60.76
2017-05-17T18:08:45.019Z,60.96
2017-05-17T18:09:45.064Z,61.15
2017-05-17T18:10:45.112Z,61.15
2017-05-17T18:11:45.144Z,61.15
2017-05-17T18:12:45.185Z,61.15
2017-05-17T18:13:45.218Z,61.63
2017-05-17T18:14:45.253Z,61.44
2017-05-17T18:15:45.306Z,61.44
2017-05-17T18:16:45.445Z,61.63
2017-05-17T18:17:45.383Z,61.7
2017-05-17T18:18:45.423Z,61.83
2017-05-17T18:19:45.463Z,61.63
2017-05-17T18:20:45.505Z,61.7
2017-05-17T18:21:45.643Z,61.89
2017-05-17T18:22:45.578Z,61.99
2017-05-17T18:23:45.619Z,62.28
2017-05-17T18:24:45.655Z,62.08
2017-05-17T18:25:45.699Z,62.28
2017-05-17T18:26:45.740Z,62.28
2017-05-17T18:27:45.791Z,62.57
2017-05-17T18:28:45.820Z,62.66
2017-05-17T18:29:45.854Z,62.57
2017-05-17T18:30:45.888Z,62.76
2017-05-17T18:31:45.912Z,62.86
2017-05-17T18:32:45.972Z,62.92
2017-05-17T18:33:46.007Z,63.12
2017-05-17T18:34:46.050Z,63.21
2017-05-17T18:35:46.090Z,63.21
2017-05-17T18:36:46.120Z,63.31
2017-05-17T18:37:46.172Z,63.31
2017-05-17T18:38:46.212Z,63.5
2017-05-17T18:39:46.245Z,64.18
2017-05-17T18:40:46.288Z,63.89
2017-05-17T18:41:46.320Z,63.89
2017-05-17T18:42:46.361Z,63.95
2017-05-17T18:43:46.408Z,63.85
2017-05-17T18:44:46.433Z,63.76
2017-05-17T18:45:46.479Z,63.95
2017-05-17T18:46:46.516Z,64.15
2017-05-17T18:47:46.553Z,64.05
2017-05-17T18:48:46.598Z,64.24
2017-05-17T18:49:46.627Z,64.53
2017-05-17T18:50:46.653Z,64.82
2017-05-17T18:51:46.717Z,65.11
2017-05-17T18:52:46.752Z,64.43
2017-05-17T18:53:46.791Z,64.82
2017-05-17T18:54:46.821Z,65.5
2017-05-17T18:55:46.863Z,65.4
2017-05-17T18:56:46.908Z,65.47
2017-05-17T18:57:46.924Z,65.5
2017-05-17T18:58:46.983Z,65.47
2017-05-17T18:59:47.025Z,65.85
2017-05-17T19:00:47.065Z,65.75
2017-05-17T19:01:47.101Z,66.52
2017-05-17T19:02:47.135Z,66.43
2017-05-17T19:03:47.174Z,66.24
2017-05-17T19:04:47.223Z,66.14